Time;durP1;ratioP1;P1;durP2;ratioP2;P2;SDS_P1;SDS_P2;PMS_P1;PMS_P2;Temp;Humidity;BMP_temperature;BMP_pressure;BME280_temperature;BME280_humidity;BME280_pressure;Samples;Min_cycle;Max_cycle;Signal;HPM_P1;HPM_P2
2021/09/21 00:01:06;;;;;;;6.20;4.22;;;9.50;99.90;;;;;;6286605;22;20014;-84
2021/09/21 00:03:33;;;;;;;9.85;5.07;;;9.50;99.90;;;;;;6286586;22;20017;-85
2021/09/21 00:06:00;;;;;;;6.75;4.40;;;9.50;99.90;;;;;;6332963;22;20101;-84
2021/09/21 00:08:27;;;;;;;7.50;5.00;;;9.50;99.90;;;;;;6332432;22;20027;-84
2021/09/21 00:10:57;;;;;;;8.60;4.57;;;9.50;99.90;;;;;;6306015;22;20046;-84
2021/09/21 00:13:24;;;;;;;8.80;4.70;;;9.60;99.90;;;;;;6281213;22;20045;-84
2021/09/21 00:15:50;;;;;;;4.85;4.35;;;9.50;99.90;;;;;;6306362;22;20006;-84
2021/09/21 00:18:16;;;;;;;5.82;4.50;;;9.60;99.90;;;;;;6280561;22;20011;-85
2021/09/21 00:20:42;;;;;;;7.97;5.25;;;9.50;99.90;;;;;;6280842;22;20018;-84
2021/09/21 00:23:08;;;;;;;6.60;4.93;;;9.60;99.90;;;;;;6306597;22;20089;-85
2021/09/21 00:25:35;;;;;;;9.98;5.68;;;9.60;99.90;;;;;;6306365;22;20459;-84
2021/09/21 00:28:01;;;;;;;7.13;5.25;;;9.60;99.90;;;;;;6306142;22;20011;-85
2021/09/21 00:30:27;;;;;;;5.78;4.50;;;9.60;99.90;;;;;;6281118;22;20017;-84
2021/09/21 00:33:03;;;;;;;8.57;5.13;;;9.60;99.90;;;;;;6280073;22;20438;-84
2021/09/21 00:35:32;;;;;;;7.80;4.15;;;9.60;99.90;;;;;;6282735;22;20007;-84
2021/09/21 00:37:59;;;;;;;7.57;5.03;;;9.70;99.90;;;;;;6306086;22;20497;-84
2021/09/21 00:40:26;;;;;;;6.65;3.88;;;9.60;99.90;;;;;;6306046;22;20033;-84
2021/09/21 00:42:52;;;;;;;7.03;4.63;;;9.70;99.90;;;;;;6306634;22;20456;-84
2021/09/21 00:45:23;;;;;;;6.60;4.75;;;9.70;99.90;;;;;;6280236;22;20011;-84
2021/09/21 00:47:53;;;;;;;9.47;5.67;;;9.70;99.90;;;;;;6332635;22;20446;-84
2021/09/21 00:50:21;;;;;;;6.38;5.35;;;9.80;99.90;;;;;;6305775;22;20814;-84
2021/09/21 00:52:48;;;;;;;8.52;5.15;;;9.80;99.90;;;;;;6306579;22;20345;-84
2021/09/21 00:55:15;;;;;;;7.47;5.20;;;9.80;99.90;;;;;;6305874;22;20308;-84
2021/09/21 00:57:41;;;;;;;7.07;5.30;;;9.70;99.90;;;;;;6306109;22;20013;-84
2021/09/21 01:00:10;;;;;;;8.40;5.63;;;9.80;99.90;;;;;;6305755;22;20410;-84
2021/09/21 01:02:35;;;;;;;7.20;5.22;;;9.80;99.90;;;;;;6305943;22;20015;-84
2021/09/21 01:05:02;;;;;;;9.15;6.00;;;9.80;99.90;;;;;;6280906;22;20011;-85
2021/09/21 01:07:28;;;;;;;8.75;5.50;;;9.80;99.90;;;;;;6306541;22;20018;-84
2021/09/21 01:10:11;;;;;;;11.60;5.57;;;9.80;99.90;;;;;;6279547;22;20221;-85
2021/09/21 01:12:38;;;;;;;11.15;5.60;;;9.80;99.90;;;;;;6306075;22;20011;-84
2021/09/21 01:15:05;;;;;;;11.70;6.32;;;9.80;99.90;;;;;;6305677;22;20015;-85
2021/09/21 01:17:31;;;;;;;10.13;6.20;;;9.80;99.90;;;;;;6332582;22;20110;-84
2021/09/21 01:19:57;;;;;;;7.22;5.30;;;9.80;99.90;;;;;;6279784;22;20422;-84
2021/09/21 01:22:23;;;;;;;8.25;5.55;;;9.90;99.90;;;;;;6307509;22;20014;-84
2021/09/21 01:24:48;;;;;;;12.20;5.00;;;9.90;99.90;;;;;;6282336;22;20010;-84
2021/09/21 01:27:14;;;;;;;9.20;5.35;;;9.90;99.90;;;;;;6282094;22;20014;-85
2021/09/21 01:29:40;;;;;;;9.93;5.95;;;9.90;99.90;;;;;;6308083;22;20011;-84
2021/09/21 01:32:06;;;;;;;7.72;4.80;;;9.90;99.90;;;;;;6308062;22;20023;-84
2021/09/21 01:34:36;;;;;;;6.60;5.30;;;9.90;99.90;;;;;;6282467;22;20158;-84
2021/09/21 01:37:03;;;;;;;8.93;4.60;;;9.90;99.90;;;;;;6307952;22;20007;-84
2021/09/21 01:39:29;;;;;;;8.15;5.25;;;9.90;99.90;;;;;;6281306;22;20014;-84
2021/09/21 01:41:55;;;;;;;6.57;5.13;;;10.00;99.90;;;;;;6307902;22;20451;-84
2021/09/21 01:44:21;;;;;;;6.25;5.28;;;10.00;99.90;;;;;;6282348;22;20010;-85
2021/09/21 01:46:49;;;;;;;12.40;5.30;;;10.00;99.90;;;;;;6281999;22;20017;-85
2021/09/21 01:49:16;;;;;;;7.68;5.40;;;10.00;99.90;;;;;;6308084;22;20021;-84
2021/09/21 01:52:08;;;;;;;7.85;5.03;;;10.00;99.90;;;;;;6307538;22;20029;-84
2021/09/21 02:00:04;;;;;;;6.40;5.43;;;10.00;99.90;;;;;;6261586;22;20019;-85
2021/09/21 02:02:30;;;;;;;8.40;5.20;;;10.10;99.90;;;;;;6279603;22;20094;-84
2021/09/21 02:04:55;;;;;;;8.30;5.05;;;10.10;99.90;;;;;;6305754;22;20466;-84
2021/09/21 02:07:21;;;;;;;8.27;5.90;;;10.10;99.90;;;;;;6280596;22;20455;-84
2021/09/21 02:09:47;;;;;;;9.80;5.65;;;10.10;99.90;;;;;;6281019;22;20007;-85
2021/09/21 02:12:13;;;;;;;6.43;5.15;;;10.10;99.90;;;;;;6280601;22;20021;-84
2021/09/21 02:14:39;;;;;;;6.97;5.88;;;10.10;99.90;;;;;;6281261;22;20013;-84
2021/09/21 02:17:04;;;;;;;9.25;5.95;;;10.10;99.90;;;;;;6280461;22;20029;-84
2021/09/21 02:19:30;;;;;;;12.05;5.65;;;10.10;99.90;;;;;;6286113;22;20015;-84
2021/09/21 02:21:56;;;;;;;8.85;5.30;;;10.20;99.90;;;;;;6319712;22;20014;-85
2021/09/21 02:24:25;;;;;;;9.13;5.65;;;10.20;99.90;;;;;;6305026;22;20014;-84
2021/09/21 02:26:52;;;;;;;10.73;4.93;;;10.20;99.90;;;;;;6305358;22;20014;-83
2021/09/21 02:29:18;;;;;;;5.85;5.20;;;10.20;99.90;;;;;;6278904;22;20052;-84
2021/09/21 02:31:43;;;;;;;8.07;5.20;;;10.20;99.90;;;;;;6304556;22;20011;-84
2021/09/21 02:34:09;;;;;;;7.43;5.07;;;10.20;99.90;;;;;;6277866;22;20013;-84
2021/09/21 02:36:40;;;;;;;8.68;5.70;;;10.20;99.90;;;;;;6279732;22;20039;-84
2021/09/21 02:39:07;;;;;;;7.07;5.53;;;10.20;99.90;;;;;;6306828;22;20007;-83
2021/09/21 02:41:33;;;;;;;12.27;5.13;;;10.20;99.90;;;;;;6304516;22;20021;-84
2021/09/21 02:43:59;;;;;;;8.52;5.18;;;10.20;99.90;;;;;;6279056;22;20011;-83
2021/09/21 02:46:25;;;;;;;9.55;5.18;;;10.20;99.90;;;;;;6278060;22;20046;-84
2021/09/21 02:48:50;;;;;;;5.88;4.80;;;10.20;99.90;;;;;;6277765;22;20068;-84
2021/09/21 02:51:16;;;;;;;9.02;5.80;;;10.30;99.90;;;;;;6328834;22;20416;-84
2021/09/21 02:53:42;;;;;;;8.18;4.90;;;10.30;99.90;;;;;;6303322;22;20019;-84
2021/09/21 02:56:07;;;;;;;6.32;4.75;;;10.30;99.90;;;;;;6303557;22;20014;-84
2021/09/21 02:58:33;;;;;;;7.47;5.88;;;10.30;99.90;;;;;;6278133;22;20018;-83
2021/09/21 03:01:00;;;;;;;8.32;5.20;;;10.30;99.90;;;;;;6278691;22;20053;-84
2021/09/21 03:03:31;;;;;;;8.35;4.85;;;10.40;99.90;;;;;;6329694;22;20019;-83
2021/09/21 03:06:04;;;;;;;5.85;4.65;;;10.30;99.90;;;;;;6303681;22;20018;-83
2021/09/21 03:08:33;;;;;;;6.97;5.68;;;10.40;99.90;;;;;;6302749;22;20015;-84
2021/09/21 03:18:51;;;;;;;5.97;4.80;;;10.40;99.90;;;;;;6311089;22;20014;-84
2021/09/21 03:21:16;;;;;;;6.15;5.10;;;10.40;99.90;;;;;;6307096;22;20037;-85
2021/09/21 03:23:42;;;;;;;8.73;5.40;;;10.40;99.90;;;;;;6255580;22;20481;-84
2021/09/21 03:26:08;;;;;;;10.65;5.95;;;10.40;99.90;;;;;;6307010;22;20014;-84
2021/09/21 03:28:34;;;;;;;8.98;5.70;;;10.50;99.90;;;;;;6280939;22;20015;-84
2021/09/21 03:31:01;;;;;;;9.70;6.18;;;10.40;99.90;;;;;;6306879;22;20245;-84
2021/09/21 03:33:27;;;;;;;7.45;6.55;;;10.50;99.90;;;;;;6306912;22;20018;-84
2021/09/21 03:35:53;;;;;;;12.63;6.43;;;10.50;99.90;;;;;;6281313;22;20029;-85
2021/09/21 03:38:19;;;;;;;10.32;6.15;;;10.50;99.90;;;;;;6306578;22;20010;-84
2021/09/21 03:40:44;;;;;;;8.95;6.88;;;10.50;99.90;;;;;;6281350;22;20017;-84
2021/09/21 03:43:10;;;;;;;10.30;6.57;;;10.50;99.90;;;;;;6306664;22;20060;-85
2021/09/21 03:45:36;;;;;;;12.18;7.20;;;10.50;99.90;;;;;;6281354;22;20017;-84
2021/09/21 03:48:02;;;;;;;11.23;7.22;;;10.50;99.90;;;;;;6280824;22;20014;-84
2021/09/21 03:50:28;;;;;;;9.50;7.13;;;10.50;99.90;;;;;;6280603;22;20323;-85
2021/09/21 03:52:54;;;;;;;10.98;7.30;;;10.60;99.90;;;;;;6306587;22;20011;-85
2021/09/21 03:55:20;;;;;;;10.27;7.05;;;10.50;99.90;;;;;;6280939;22;20007;-84
2021/09/21 03:57:46;;;;;;;11.00;7.55;;;10.60;99.90;;;;;;6281038;22;20383;-84
2021/09/21 04:00:12;;;;;;;9.75;7.18;;;10.50;99.90;;;;;;6280953;22;20053;-84
2021/09/21 04:02:39;;;;;;;10.25;6.78;;;10.60;99.90;;;;;;6306480;22;20466;-84
2021/09/21 04:05:05;;;;;;;12.18;7.22;;;10.60;99.90;;;;;;6281307;22;20010;-85
2021/09/21 04:08:04;;;;;;;13.13;7.85;;;10.60;99.90;;;;;;6281712;22;20025;-86
2021/09/21 04:10:48;;;;;;;8.93;7.50;;;10.60;99.90;;;;;;6281612;22;20090;-86
2021/09/21 04:13:16;;;;;;;14.60;8.13;;;10.60;99.90;;;;;;6249625;22;20022;-85
2021/09/21 04:15:42;;;;;;;11.23;7.40;;;10.60;99.90;;;;;;6248417;22;20015;-85
2021/09/21 04:18:08;;;;;;;9.43;7.32;;;10.60;99.90;;;;;;6248358;22;20479;-85
2021/09/21 04:20:48;;;;;;;17.95;8.07;;;10.60;99.90;;;;;;6248897;22;20034;-85
2021/09/21 04:23:17;;;;;;;13.82;8.45;;;10.60;99.90;;;;;;6249616;22;20470;-85
2021/09/21 04:25:43;;;;;;;11.02;7.53;;;10.60;99.90;;;;;;6197695;22;20015;-84
2021/09/21 04:28:09;;;;;;;12.98;8.02;;;10.60;99.90;;;;;;6274349;22;20021;-85
2021/09/21 04:30:35;;;;;;;11.32;8.43;;;10.60;99.90;;;;;;6222721;22;20049;-84
2021/09/21 04:33:00;;;;;;;15.50;8.43;;;10.60;99.90;;;;;;6248508;22;20019;-84
2021/09/21 04:35:26;;;;;;;10.75;8.57;;;10.60;99.90;;;;;;6198257;22;20077;-85
2021/09/21 04:37:52;;;;;;;10.80;8.48;;;10.60;99.90;;;;;;6230642;22;20955;-86
2021/09/21 04:40:19;;;;;;;11.32;8.82;;;10.60;99.90;;;;;;6220453;22;19999;-85
2021/09/21 04:42:45;;;;;;;12.13;8.35;;;10.60;99.90;;;;;;6245726;22;20015;-86
2021/09/21 04:45:11;;;;;;;12.98;8.73;;;10.70;99.90;;;;;;6216079;22;20014;-85
2021/09/21 04:47:40;;;;;;;11.32;8.10;;;10.70;99.90;;;;;;6242732;22;20351;-86
2021/09/21 04:50:12;;;;;;;11.13;8.77;;;10.70;99.90;;;;;;6226964;22;20072;-85
2021/09/21 04:52:38;;;;;;;12.90;8.25;;;10.70;99.90;;;;;;6273331;22;20564;-86
2021/09/21 04:55:04;;;;;;;12.77;8.50;;;10.70;99.90;;;;;;6272832;22;20014;-85
2021/09/21 04:57:30;;;;;;;11.80;8.68;;;10.70;99.90;;;;;;6299621;22;20010;-86
2021/09/21 04:59:56;;;;;;;15.85;8.90;;;10.70;99.90;;;;;;6299020;22;20018;-86
2021/09/21 05:02:22;;;;;;;12.50;9.30;;;10.70;99.90;;;;;;6274587;22;20014;-85
2021/09/21 05:05:00;;;;;;;15.82;8.82;;;10.70;99.90;;;;;;6300249;22;20354;-86
2021/09/21 05:07:27;;;;;;;13.95;8.35;;;10.80;99.90;;;;;;6300224;22;20018;-85
2021/09/21 05:09:53;;;;;;;13.65;9.02;;;10.80;99.90;;;;;;6297602;22;20034;-86
2021/09/21 05:12:33;;;;;;;14.23;9.02;;;10.80;99.90;;;;;;6299396;22;20017;-86
2021/09/21 05:15:05;;;;;;;15.43;9.68;;;10.80;99.90;;;;;;6299798;22;20018;-84
2021/09/21 05:17:37;;;;;;;18.65;9.85;;;10.80;99.90;;;;;;6272848;22;20025;-86
2021/09/21 05:20:15;;;;;;;15.63;9.05;;;10.80;99.90;;;;;;6273834;22;20321;-86
2021/09/21 05:22:41;;;;;;;13.27;9.60;;;10.80;99.90;;;;;;6324989;22;20190;-86
2021/09/21 05:25:41;;;;;;;13.10;9.45;;;10.80;99.90;;;;;;6299445;22;20335;-86
2021/09/21 05:28:19;;;;;;;12.75;9.20;;;10.80;99.90;;;;;;6276050;22;20045;-87
2021/09/21 05:30:46;;;;;;;15.65;9.35;;;10.90;99.90;;;;;;6273647;22;20011;-85
2021/09/21 05:33:30;;;;;;;14.52;10.60;;;10.90;99.90;;;;;;6300086;22;20018;-86
2021/09/21 05:35:56;;;;;;;18.33;12.80;;;10.90;99.90;;;;;;6273292;22;20015;-87
2021/09/21 05:38:24;;;;;;;17.90;12.82;;;10.90;99.90;;;;;;6294769;22;20526;-86
2021/09/21 05:40:50;;;;;;;19.17;13.10;;;10.90;99.90;;;;;;6298015;22;20015;-85
2021/09/21 05:43:16;;;;;;;18.42;11.70;;;10.90;99.90;;;;;;6273714;22;20017;-86
2021/09/21 05:45:42;;;;;;;16.95;11.88;;;10.90;99.90;;;;;;6273588;22;20019;-86
2021/09/21 05:48:08;;;;;;;19.38;12.18;;;11.00;99.90;;;;;;6299230;22;20126;-84
2021/09/21 05:50:34;;;;;;;17.25;11.45;;;11.00;99.90;;;;;;6298329;22;20017;-85
2021/09/21 05:53:00;;;;;;;19.20;11.80;;;11.00;99.90;;;;;;6299259;22;20029;-85
2021/09/21 05:55:28;;;;;;;15.20;10.93;;;11.00;99.90;;;;;;6299520;22;20011;-85
2021/09/21 05:57:54;;;;;;;16.90;10.93;;;11.00;99.90;;;;;;6300251;22;20089;-85
2021/09/21 06:00:21;;;;;;;15.57;10.63;;;11.10;99.90;;;;;;6300322;22;20455;-85
2021/09/21 06:02:47;;;;;;;15.57;10.27;;;11.10;99.90;;;;;;6273227;22;20022;-85
2021/09/21 06:05:13;;;;;;;13.63;10.45;;;11.10;99.90;;;;;;6302364;22;20330;-87
2021/09/21 06:07:50;;;;;;;13.57;10.05;;;11.10;99.90;;;;;;6302431;22;20098;-87
2021/09/21 06:10:21;;;;;;;15.15;10.10;;;11.10;99.90;;;;;;6301114;22;20017;-87
2021/09/21 06:12:48;;;;;;;16.73;9.98;;;11.20;99.90;;;;;;6299579;22;20019;-87
2021/09/21 06:15:15;;;;;;;17.73;10.93;;;11.20;99.90;;;;;;6301771;22;20015;-86
2021/09/21 06:17:42;;;;;;;15.57;9.82;;;11.20;99.90;;;;;;6277175;22;20011;-86
2021/09/21 06:20:10;;;;;;;15.18;9.20;;;11.20;99.90;;;;;;6279329;22;20140;-83
2021/09/21 06:22:37;;;;;;;13.55;9.35;;;11.20;99.90;;;;;;6281617;22;20025;-86
2021/09/21 06:25:05;;;;;;;13.88;9.90;;;11.20;99.90;;;;;;6307015;22;20401;-86
2021/09/21 06:27:31;;;;;;;15.80;9.30;;;11.30;99.90;;;;;;6280728;22;20068;-87
2021/09/21 06:30:00;;;;;;;13.27;10.00;;;11.30;99.90;;;;;;6305923;22;20015;-85
2021/09/21 06:32:26;;;;;;;17.27;9.70;;;11.30;99.90;;;;;;6302990;22;20469;-86
2021/09/21 06:44:21;;;;;;;17.25;10.18;;;11.40;99.90;;;;;;5002652;28;20410;-83
2021/09/21 06:46:56;;;;;;;13.68;9.07;;;11.50;99.90;;;;;;4983011;28;20095;-84
2021/09/21 06:49:42;;;;;;;16.30;9.10;;;11.50;99.90;;;;;;4973555;28;20654;-84
2021/09/21 06:52:25;;;;;;;20.55;9.35;;;11.50;99.90;;;;;;4986316;28;20084;-85
2021/09/21 08:57:22;;;;;;;10.05;7.13;;;13.90;96.40;;;;;;5039594;28;20055;-85
2021/09/21 09:31:07;;;;;;;9.75;5.57;;;14.90;95.60;;;;;;4962697;28;20113;-87
2021/09/21 09:45:54;;;;;;;9.18;5.63;;;15.40;94.70;;;;;;4994437;28;20081;-84
2021/09/21 09:48:42;;;;;;;8.98;6.07;;;15.50;94.50;;;;;;4872949;29;20164;-83
2021/09/21 09:55:45;;;;;;;7.50;5.20;;;15.70;93.70;;;;;;4862848;29;20100;-84
2021/09/21 10:02:17;;;;;;;6.47;4.70;;;15.80;93.20;;;;;;4788221;29;20051;-84
2021/09/21 10:04:44;;;;;;;5.45;4.45;;;16.00;93.00;;;;;;4752046;29;20058;-85
2021/09/21 10:07:10;;;;;;;9.52;4.35;;;16.00;92.40;;;;;;4759883;29;20058;-90
2021/09/21 10:09:37;;;;;;;7.63;4.93;;;16.10;92.10;;;;;;4785096;29;20060;-88
2021/09/21 10:12:04;;;;;;;8.40;4.35;;;16.10;91.90;;;;;;4803201;29;20045;-87
2021/09/21 10:14:29;;;;;;;7.47;4.65;;;16.20;91.80;;;;;;4798429;29;20522;-85
2021/09/21 10:16:59;;;;;;;6.97;3.70;;;16.30;91.70;;;;;;4801330;29;20077;-86
2021/09/21 10:19:27;;;;;;;5.53;3.72;;;16.30;91.70;;;;;;4828134;29;20053;-86
2021/09/21 10:21:54;;;;;;;6.70;3.70;;;16.40;91.20;;;;;;4852791;29;20048;-86
2021/09/21 10:24:39;;;;;;;6.35;3.65;;;16.40;90.80;;;;;;4850331;29;20639;-86
2021/09/21 10:27:08;;;;;;;6.38;3.83;;;16.50;90.90;;;;;;4849207;29;20094;-84
2021/09/21 10:29:35;;;;;;;6.18;3.90;;;16.50;90.60;;;;;;4866217;29;20051;-83
2021/09/21 10:32:02;;;;;;;6.40;4.03;;;16.50;90.50;;;;;;4842066;29;20069;-83
2021/09/21 10:34:42;;;;;;;6.22;4.30;;;16.60;90.50;;;;;;4880748;29;20557;-82
2021/09/21 10:37:08;;;;;;;8.02;4.55;;;16.60;90.10;;;;;;4867801;29;20044;-83
2021/09/21 10:39:34;;;;;;;6.80;4.43;;;16.60;89.90;;;;;;4846646;29;20473;-84
2021/09/21 10:42:08;;;;;;;5.95;4.10;;;16.60;89.70;;;;;;4867589;29;20034;-84
2021/09/21 10:44:35;;;;;;;6.25;3.75;;;16.70;90.00;;;;;;4858926;29;20045;-83
2021/09/21 10:47:07;;;;;;;6.00;4.57;;;16.70;90.10;;;;;;4853558;29;20051;-84
2021/09/21 10:49:38;;;;;;;8.35;4.57;;;16.70;90.10;;;;;;4904502;29;20113;-84
2021/09/21 10:52:11;;;;;;;7.43;4.05;;;16.80;89.80;;;;;;4924092;29;20153;-84
2021/09/21 10:54:42;;;;;;;10.10;4.55;;;16.80;88.90;;;;;;4933064;28;20062;-83
2021/09/21 10:57:12;;;;;;;5.15;4.30;;;16.80;88.90;;;;;;4946814;28;20130;-84
2021/09/21 10:59:52;;;;;;;7.38;4.78;;;16.80;89.20;;;;;;4943982;28;20836;-84
2021/09/21 11:02:22;;;;;;;12.63;4.80;;;16.80;89.40;;;;;;4935380;28;20457;-82
2021/09/21 11:04:48;;;;;;;9.05;5.18;;;16.90;89.40;;;;;;4961330;28;20043;-84
2021/09/21 11:07:14;;;;;;;9.27;5.20;;;16.90;89.50;;;;;;4958799;28;20410;-83
2021/09/21 11:09:41;;;;;;;6.30;4.82;;;16.90;89.70;;;;;;4963032;28;20584;-86
2021/09/21 11:12:09;;;;;;;8.68;5.40;;;17.00;89.70;;;;;;4958863;28;20062;-86
2021/09/21 11:14:37;;;;;;;11.68;6.15;;;17.10;89.90;;;;;;4942120;28;20038;-85
2021/09/21 11:17:11;;;;;;;7.95;5.40;;;17.20;89.60;;;;;;4946608;28;20547;-88
2021/09/21 11:19:38;;;;;;;7.95;5.95;;;17.30;89.30;;;;;;5016305;28;20037;-86
2021/09/21 11:22:09;;;;;;;8.18;6.03;;;17.30;89.40;;;;;;5000532;28;20128;-88
2021/09/21 11:24:37;;;;;;;8.25;6.40;;;17.40;89.60;;;;;;5012350;28;20044;-83
2021/09/21 11:27:06;;;;;;;9.98;5.38;;;17.40;89.80;;;;;;5011499;28;20637;-84
2021/09/21 11:29:34;;;;;;;10.63;6.47;;;17.50;89.30;;;;;;5006579;28;20055;-84
2021/09/21 11:32:14;;;;;;;10.73;5.90;;;17.50;89.30;;;;;;5010970;28;20128;-87
2021/09/21 11:34:40;;;;;;;9.02;5.72;;;17.60;89.90;;;;;;5021672;28;20048;-86
2021/09/21 11:37:07;;;;;;;7.97;6.38;;;17.60;89.80;;;;;;4989420;28;20056;-84
2021/09/21 11:39:33;;;;;;;9.75;6.53;;;17.70;89.70;;;;;;4974401;28;20057;-85
2021/09/21 11:41:59;;;;;;;12.40;6.60;;;17.70;89.70;;;;;;4990014;28;20072;-87
2021/09/21 11:44:36;;;;;;;8.52;6.28;;;17.80;89.20;;;;;;5039389;28;20060;-84
2021/09/21 11:47:02;;;;;;;8.52;6.20;;;17.80;89.00;;;;;;5009205;28;20048;-84
2021/09/21 11:49:35;;;;;;;11.63;6.40;;;17.80;88.40;;;;;;5003663;28;20044;-86
2021/09/21 11:52:03;;;;;;;14.95;6.60;;;17.80;88.50;;;;;;5003903;28;20048;-86
2021/09/21 11:54:32;;;;;;;11.23;6.68;;;17.80;88.00;;;;;;5012820;28;20051;-85
2021/09/21 11:57:01;;;;;;;12.60;6.03;;;17.90;87.90;;;;;;5012616;28;20496;-87
2021/09/21 11:59:26;;;;;;;10.88;6.78;;;17.80;87.80;;;;;;5007178;28;20036;-84
2021/09/21 12:01:57;;;;;;;11.88;7.80;;;17.80;87.80;;;;;;5007013;28;20124;-88
2021/09/21 12:04:22;;;;;;;12.95;8.40;;;17.80;87.60;;;;;;4998708;28;20037;-84
2021/09/21 12:06:48;;;;;;;13.10;7.45;;;17.90;88.00;;;;;;4974111;28;20040;-86
2021/09/21 12:09:14;;;;;;;13.32;7.68;;;17.90;88.30;;;;;;5018201;28;20029;-86
2021/09/21 12:11:44;;;;;;;11.00;6.93;;;18.00;88.90;;;;;;4987080;28;20532;-84
2021/09/21 12:14:16;;;;;;;11.40;7.28;;;18.00;88.70;;;;;;4992927;28;20086;-84
2021/09/21 12:16:51;;;;;;;11.70;7.82;;;18.10;88.10;;;;;;5016070;28;20516;-85
2021/09/21 12:19:18;;;;;;;13.52;7.45;;;18.10;88.00;;;;;;5001530;28;20041;-86
2021/09/21 12:21:47;;;;;;;9.80;7.07;;;18.10;86.70;;;;;;4999477;28;20121;-85
2021/09/21 12:24:16;;;;;;;10.55;7.13;;;18.10;86.80;;;;;;4999805;28;20033;-85
2021/09/21 12:26:42;;;;;;;12.35;7.20;;;18.10;87.30;;;;;;4989625;28;20045;-87
2021/09/21 12:29:08;;;;;;;13.40;7.55;;;18.10;87.10;;;;;;5010235;28;20079;-84
2021/09/21 12:31:43;;;;;;;13.27;7.22;;;18.10;86.70;;;;;;4989902;28;20407;-86
2021/09/21 12:34:13;;;;;;;11.50;6.57;;;18.00;86.50;;;;;;5010108;28;20068;-87
2021/09/21 12:36:53;;;;;;;;;;;17.90;87.00;;;;;;5005405;28;20044;-87
2021/09/21 12:39:23;;;;;;;10.00;6.40;;;17.80;89.20;;;;;;4997654;28;20398;-85
2021/09/21 12:41:53;;;;;;;12.95;6.60;;;17.70;87.80;;;;;;5008152;28;20350;-87
2021/09/21 12:44:27;;;;;;;11.65;7.30;;;17.70;88.00;;;;;;5017844;28;20757;-87
2021/09/21 12:46:57;;;;;;;10.50;7.22;;;17.60;88.10;;;;;;5004148;28;20049;-85
2021/09/21 12:49:30;;;;;;;12.10;6.95;;;17.60;89.00;;;;;;4987536;28;20112;-85
2021/09/21 12:52:00;;;;;;;15.07;6.80;;;17.50;88.80;;;;;;5003977;28;20499;-84
2021/09/21 12:54:27;;;;;;;10.23;6.10;;;17.50;89.10;;;;;;4979905;28;20052;-84
2021/09/21 12:56:59;;;;;;;9.75;6.05;;;17.40;89.20;;;;;;4997273;28;20041;-87
2021/09/21 12:59:27;;;;;;;11.55;5.68;;;17.40;89.70;;;;;;5001945;28;20513;-85
2021/09/21 13:01:53;;;;;;;8.77;6.28;;;17.30;89.70;;;;;;5005313;28;20041;-86
2021/09/21 13:04:19;;;;;;;11.23;6.68;;;17.30;90.00;;;;;;4990220;28;20291;-86
2021/09/21 13:06:48;;;;;;;12.05;6.30;;;17.30;90.20;;;;;;4972219;28;20488;-87
2021/09/21 13:09:14;;;;;;;10.68;5.85;;;17.30;90.30;;;;;;4985945;28;20370;-86
2021/09/21 13:11:41;;;;;;;10.13;5.78;;;17.30;90.20;;;;;;5005095;28;20463;-86
2021/09/21 13:14:09;;;;;;;12.55;5.72;;;17.30;90.30;;;;;;5003870;28;20781;-85
2021/09/21 13:16:38;;;;;;;8.73;5.97;;;17.30;90.60;;;;;;5001134;28;20431;-86
2021/09/21 13:19:04;;;;;;;12.80;6.25;;;17.30;90.50;;;;;;4984086;28;20037;-85
2021/09/21 13:21:34;;;;;;;8.13;5.47;;;17.30;90.30;;;;;;5003649;28;20040;-86
2021/09/21 13:24:03;;;;;;;8.00;5.57;;;17.30;90.40;;;;;;5008650;28;20055;-86
2021/09/21 13:26:29;;;;;;;11.05;5.57;;;17.20;90.50;;;;;;4997843;28;20587;-86
